aviador You're here:

KLPC Decoded Metar

LOMPOC in CA, USA
Report Time2017-04-29 16:56:00
UTC Time2017-04-29 17:46:02
Flight Rules vfr VFR
WindCalm
Visibility9999 m
Phenomena:N/A
Clouds:N/A
Expected CloudBase > 5,600 ft AGL from Temp-Dew spread
CeilingNone
Temp18°C (ISA +3)
Dew Point04°C (40% RH)
AAT16.7°C
QNH1018 hPa
Density Alt407 ft
Elevation89 ft
Report Wrong Elevation
Raw Report
KLPC 291656Z AUTO 00000KT 10SM CLR 18/04 A3006 RMK AO2 SLP184
T01830044=

Extra information for KLPC:More info

Metar Taf Metar & Taf Last 4 Metars F.Rules Stats Wind Profile Meteogram Temp Stats Airport Information Weather charts Add Link Nearby VenuesMetar ALERT Operation Metar Decoded Social comments

AIRNAV info for KLPC